createdAt,value
2022-08-29T00:00:28.145Z,13.60
2022-08-29T00:02:59.966Z,13.60
2022-08-29T00:05:30.677Z,13.70
2022-08-29T00:07:59.357Z,13.70
2022-08-29T00:10:28.364Z,13.70
2022-08-29T00:12:57.792Z,13.70
2022-08-29T00:15:27.942Z,13.70
2022-08-29T00:17:56.036Z,13.70
2022-08-29T00:20:33.913Z,13.60
2022-08-29T00:23:03.520Z,13.70
2022-08-29T00:25:32.107Z,13.60
2022-08-29T00:28:00.271Z,13.60
2022-08-29T00:30:29.649Z,13.50
2022-08-29T00:32:57.593Z,13.50
2022-08-29T00:35:27.718Z,13.40
2022-08-29T00:37:56.555Z,13.50
2022-08-29T00:40:27.391Z,13.50
2022-08-29T00:42:55.482Z,13.40
2022-08-29T00:45:24.011Z,13.30
2022-08-29T00:47:57.177Z,13.30
2022-08-29T00:50:29.747Z,13.20
2022-08-29T00:52:59.182Z,13.20
2022-08-29T00:55:31.422Z,13.10
2022-08-29T00:58:03.043Z,13.20
2022-08-29T01:00:31.884Z,13.10
2022-08-29T01:03:02.812Z,13.10
2022-08-29T01:05:30.771Z,13.10
2022-08-29T01:07:59.211Z,13.10
2022-08-29T01:10:45.089Z,13.00
2022-08-29T01:13:13.998Z,13.00
2022-08-29T01:15:44.149Z,12.90
2022-08-29T01:18:15.654Z,12.90
2022-08-29T01:20:56.056Z,12.90
2022-08-29T01:23:33.597Z,12.90
2022-08-29T01:26:04.919Z,12.80
2022-08-29T01:28:37.420Z,12.90
2022-08-29T01:31:08.192Z,12.90
2022-08-29T01:33:41.692Z,13.00
2022-08-29T01:36:11.849Z,13.00
2022-08-29T01:38:40.357Z,13.00
2022-08-29T01:41:10.624Z,13.20
2022-08-29T01:43:44.745Z,13.20
2022-08-29T01:46:16.800Z,13.30
2022-08-29T01:48:46.673Z,13.30
2022-08-29T01:51:15.831Z,13.20
2022-08-29T01:53:43.947Z,13.00
2022-08-29T01:56:16.130Z,12.90
2022-08-29T01:58:45.154Z,12.90
2022-08-29T02:01:15.304Z,13.00
2022-08-29T02:03:43.298Z,13.10
2022-08-29T02:06:11.242Z,12.90
2022-08-29T02:08:40.879Z,12.80
2022-08-29T02:11:10.494Z,12.70
2022-08-29T02:13:41.424Z,12.80
2022-08-29T02:16:10.024Z,12.80
2022-08-29T02:18:37.970Z,12.70
2022-08-29T02:21:06.207Z,12.70
2022-08-29T02:23:35.898Z,12.60
2022-08-29T02:26:04.818Z,12.60
2022-08-29T02:28:33.276Z,12.60
2022-08-29T02:31:02.612Z,12.70
2022-08-29T02:33:31.353Z,12.70
2022-08-29T02:36:00.261Z,12.70
2022-08-29T02:38:29.673Z,12.70
2022-08-29T02:40:57.892Z,12.80
2022-08-29T02:43:26.262Z,12.70
2022-08-29T02:45:55.167Z,12.60
2022-08-29T02:48:24.607Z,12.60
2022-08-29T02:50:55.043Z,12.60
2022-08-29T02:53:25.181Z,12.70
2022-08-29T02:55:53.636Z,12.80
2022-08-29T02:58:22.979Z,13.00
2022-08-29T03:00:51.604Z,13.00
2022-08-29T03:03:20.006Z,12.80
2022-08-29T03:05:49.377Z,12.80
2022-08-29T03:08:18.877Z,12.80
2022-08-29T03:10:46.805Z,12.80
2022-08-29T03:13:14.902Z,12.90
2022-08-29T03:15:42.857Z,13.00
2022-08-29T03:18:10.881Z,12.90
2022-08-29T03:20:39.296Z,12.90
2022-08-29T03:23:09.560Z,12.90
2022-08-29T03:25:37.425Z,12.90
2022-08-29T03:28:05.865Z,12.90
2022-08-29T03:30:33.773Z,12.90
2022-08-29T03:33:02.436Z,12.90
2022-08-29T03:35:30.332Z,12.90
2022-08-29T03:37:58.316Z,12.80
2022-08-29T03:40:27.983Z,12.70
2022-08-29T03:42:56.541Z,12.60
2022-08-29T03:45:25.575Z,12.60
2022-08-29T03:47:53.917Z,12.50
2022-08-29T03:50:24.312Z,12.50
2022-08-29T03:52:52.299Z,12.40
2022-08-29T03:55:20.588Z,12.30
2022-08-29T03:57:50.133Z,12.40
2022-08-29T04:00:20.749Z,12.40
2022-08-29T04:02:49.367Z,12.40
2022-08-29T04:05:18.729Z,12.40
2022-08-29T04:07:50.064Z,12.30
2022-08-29T04:10:22.104Z,12.10
2022-08-29T04:12:54.745Z,12.10
2022-08-29T04:15:23.982Z,12.20
2022-08-29T04:17:54.394Z,12.30
2022-08-29T04:20:25.317Z,12.40
2022-08-29T04:22:54.917Z,12.40
2022-08-29T04:25:24.846Z,12.50
2022-08-29T04:27:54.692Z,12.60
2022-08-29T04:30:26.129Z,12.70
2022-08-29T04:32:54.252Z,12.70
2022-08-29T04:35:22.251Z,12.70
2022-08-29T04:37:50.277Z,12.80
2022-08-29T04:40:21.305Z,12.80
2022-08-29T04:42:50.976Z,12.90
2022-08-29T04:45:22.559Z,12.90
2022-08-29T04:47:51.101Z,12.90
2022-08-29T04:50:21.697Z,12.90
2022-08-29T04:52:50.365Z,12.70
2022-08-29T04:55:22.541Z,12.60
2022-08-29T04:57:56.314Z,12.60
2022-08-29T05:00:28.339Z,12.70
2022-08-29T05:02:56.443Z,12.70
2022-08-29T05:05:24.375Z,12.90
2022-08-29T05:07:52.261Z,13.20
2022-08-29T05:10:21.813Z,13.60
2022-08-29T05:12:49.786Z,13.90
2022-08-29T05:15:18.714Z,14.30
2022-08-29T05:17:48.070Z,14.60
2022-08-29T05:20:16.990Z,14.90
2022-08-29T05:22:44.996Z,15.20
2022-08-29T05:25:17.929Z,15.50
2022-08-29T05:27:47.196Z,15.60
2022-08-29T05:30:16.455Z,15.60
2022-08-29T05:33:04.412Z,15.70
2022-08-29T05:35:33.538Z,15.80
2022-08-29T05:38:08.570Z,15.90
2022-08-29T05:40:38.045Z,15.90
2022-08-29T05:43:06.114Z,16.30
2022-08-29T05:45:34.012Z,16.60
2022-08-29T05:48:07.754Z,16.90
2022-08-29T05:50:39.225Z,17.00
2022-08-29T05:53:07.097Z,17.20
2022-08-29T05:55:35.025Z,17.20
2022-08-29T05:58:02.864Z,17.30
2022-08-29T06:00:30.802Z,17.50
2022-08-29T06:02:59.355Z,17.70
2022-08-29T06:05:28.797Z,18.00
2022-08-29T06:07:56.694Z,18.30
2022-08-29T06:10:24.571Z,18.50
2022-08-29T06:12:52.406Z,18.70
2022-08-29T06:15:20.693Z,18.90
2022-08-29T06:17:48.624Z,19.00
2022-08-29T06:20:16.633Z,19.30
2022-08-29T06:22:45.806Z,19.60
2022-08-29T06:25:35.518Z,19.90
2022-08-29T06:28:02.103Z,20.10
2022-08-29T06:30:33.305Z,20.40
2022-08-29T06:33:01.952Z,20.60
2022-08-29T06:35:29.837Z,20.80
2022-08-29T06:37:59.040Z,20.90
2022-08-29T06:40:27.404Z,21.20
2022-08-29T06:42:55.364Z,21.60
2022-08-29T06:45:23.270Z,21.80
2022-08-29T06:47:51.141Z,21.90
2022-08-29T06:50:19.670Z,21.90
2022-08-29T06:52:47.512Z,22.10
2022-08-29T06:55:16.787Z,22.50
2022-08-29T06:57:51.847Z,22.50
2022-08-29T07:00:22.472Z,22.70
2022-08-29T07:02:52.629Z,22.70
2022-08-29T07:05:21.817Z,22.70
2022-08-29T07:07:50.317Z,22.80
2022-08-29T07:10:22.801Z,22.90
2022-08-29T07:12:51.382Z,22.80
2022-08-29T07:15:19.822Z,23.10
2022-08-29T07:17:48.394Z,23.50
2022-08-29T07:20:17.932Z,23.70
2022-08-29T07:22:51.082Z,23.50
2022-08-29T07:25:21.982Z,23.50
2022-08-29T07:27:53.356Z,23.30
2022-08-29T07:30:21.871Z,23.40
2022-08-29T07:32:49.813Z,23.50
2022-08-29T07:35:29.645Z,23.60
2022-08-29T07:37:58.563Z,23.90
2022-08-29T07:40:28.144Z,24.30
2022-08-29T07:42:56.147Z,24.40
2022-08-29T07:45:24.019Z,24.70
2022-08-29T07:47:51.996Z,24.70
2022-08-29T07:50:19.955Z,24.80
2022-08-29T07:52:48.508Z,25.00
2022-08-29T07:55:16.399Z,25.20
2022-08-29T07:57:46.530Z,25.50
2022-08-29T08:00:14.804Z,25.60
2022-08-29T08:02:42.671Z,25.30
2022-08-29T08:05:10.832Z,25.00
2022-08-29T08:07:40.181Z,25.30
2022-08-29T08:10:09.411Z,25.30
2022-08-29T08:12:37.373Z,25.30
2022-08-29T08:15:07.410Z,25.40
2022-08-29T08:17:35.249Z,25.50
2022-08-29T08:20:04.050Z,25.70
2022-08-29T08:22:32.454Z,26.00
2022-08-29T08:25:00.353Z,26.00
2022-08-29T08:27:28.283Z,26.00
2022-08-29T08:29:59.605Z,26.40
2022-08-29T08:32:32.682Z,26.50
2022-08-29T08:35:01.755Z,26.50
2022-08-29T08:37:29.662Z,26.10
2022-08-29T08:39:58.174Z,25.60
2022-08-29T08:42:42.194Z,25.70
2022-08-29T08:45:12.914Z,25.60
2022-08-29T08:47:46.327Z,25.50
2022-08-29T08:50:21.833Z,25.70
2022-08-29T08:52:55.471Z,26.00
2022-08-29T08:55:34.674Z,26.30
2022-08-29T08:58:07.836Z,26.70
2022-08-29T09:00:43.781Z,26.70
2022-08-29T09:03:26.234Z,27.00
2022-08-29T09:06:08.231Z,27.40
2022-08-29T09:08:44.527Z,27.10
2022-08-29T09:11:20.866Z,27.20
2022-08-29T09:13:56.951Z,27.20
2022-08-29T09:16:27.956Z,27.30
2022-08-29T09:19:01.318Z,27.00
2022-08-29T09:21:46.481Z,27.00
2022-08-29T09:24:25.520Z,27.20
2022-08-29T09:26:53.431Z,27.40
2022-08-29T09:29:21.867Z,27.60
2022-08-29T09:32:07.602Z,27.80
2022-08-29T09:35:04.908Z,27.80
2022-08-29T09:37:32.191Z,27.70
2022-08-29T09:40:03.570Z,27.90
2022-08-29T09:42:35.142Z,27.70
2022-08-29T09:45:09.607Z,27.80
2022-08-29T09:47:37.422Z,28.00
2022-08-29T09:50:11.387Z,28.10
2022-08-29T09:52:41.794Z,28.10
2022-08-29T09:55:23.127Z,27.90
2022-08-29T09:57:54.354Z,28.10
2022-08-29T10:00:28.338Z,28.20
2022-08-29T10:02:59.608Z,28.20
2022-08-29T10:05:41.393Z,28.00
2022-08-29T10:08:27.020Z,28.00
2022-08-29T10:10:57.671Z,28.50
2022-08-29T10:13:31.319Z,28.80
2022-08-29T10:16:09.880Z,28.60
2022-08-29T10:18:45.629Z,28.20
2022-08-29T10:21:25.654Z,28.10
2022-08-29T10:24:10.048Z,28.20
2022-08-29T10:26:46.488Z,28.10
2022-08-29T10:29:28.518Z,28.40
2022-08-29T10:32:10.114Z,28.10
2022-08-29T10:34:57.310Z,27.90
2022-08-29T10:37:35.512Z,27.80
2022-08-29T10:40:09.934Z,27.80
2022-08-29T10:42:40.590Z,27.90
2022-08-29T10:45:18.424Z,28.20
2022-08-29T10:47:52.854Z,28.10
2022-08-29T10:50:46.442Z,28.30
2022-08-29T10:53:20.179Z,28.00
2022-08-29T10:55:56.654Z,28.30
2022-08-29T10:58:36.457Z,28.60
2022-08-29T11:01:10.468Z,28.90
2022-08-29T11:03:43.203Z,29.00
2022-08-29T11:06:14.824Z,29.00
2022-08-29T11:08:50.611Z,29.00
2022-08-29T11:11:20.462Z,28.80
2022-08-29T11:13:53.201Z,28.90
2022-08-29T11:16:26.440Z,29.10
2022-08-29T11:19:00.964Z,29.30
2022-08-29T11:21:33.758Z,29.10
2022-08-29T11:24:06.470Z,28.60
2022-08-29T11:26:49.766Z,28.30
2022-08-29T11:29:27.749Z,28.30
2022-08-29T11:32:01.652Z,28.60
2022-08-29T11:34:41.233Z,29.10
2022-08-29T11:37:39.112Z,29.70
2022-08-29T11:40:47.163Z,29.70
2022-08-29T11:43:13.345Z,30.20
2022-08-29T11:45:44.166Z,30.80
2022-08-29T11:48:34.118Z,30.80
2022-08-29T11:51:36.137Z,29.90
2022-08-29T11:54:41.726Z,29.30
2022-08-29T11:57:46.125Z,29.20
2022-08-29T12:00:43.115Z,29.60
2022-08-29T12:03:46.597Z,29.70
2022-08-29T12:06:55.407Z,30.20
2022-08-29T12:09:47.719Z,30.50
2022-08-29T12:12:33.488Z,30.30
2022-08-29T12:15:01.460Z,30.40
2022-08-29T12:18:03.388Z,30.00
2022-08-29T12:20:42.906Z,29.90
2022-08-29T12:23:24.422Z,30.00
2022-08-29T12:28:50.004Z,31.00
2022-08-29T12:32:17.839Z,31.40
2022-08-29T12:34:50.733Z,31.30
2022-08-29T12:37:32.552Z,30.70
2022-08-29T12:40:22.308Z,29.90
2022-08-29T12:43:08.815Z,29.50
2022-08-29T12:45:39.303Z,29.30
2022-08-29T12:48:12.577Z,29.00
2022-08-29T12:50:45.286Z,28.70
2022-08-29T12:53:19.272Z,28.80
2022-08-29T12:55:52.030Z,29.00
2022-08-29T12:58:38.412Z,29.40
2022-08-29T13:01:17.909Z,29.90
2022-08-29T13:03:57.258Z,30.20
2022-08-29T13:06:25.213Z,29.80
2022-08-29T13:08:53.069Z,29.60
2022-08-29T13:11:24.637Z,29.60
2022-08-29T13:13:52.524Z,29.40
2022-08-29T13:16:25.953Z,28.90
2022-08-29T13:19:10.104Z,28.90
2022-08-29T13:21:39.068Z,29.00
2022-08-29T13:24:12.739Z,29.00
2022-08-29T13:27:04.560Z,29.40
2022-08-29T13:29:38.360Z,29.80
2022-08-29T13:32:24.427Z,29.90
2022-08-29T13:35:05.261Z,30.20
2022-08-29T13:37:35.439Z,30.20
2022-08-29T13:40:33.593Z,30.10
2022-08-29T13:43:03.720Z,30.10
2022-08-29T13:45:32.283Z,29.80
2022-08-29T13:48:13.143Z,29.60
2022-08-29T13:50:41.676Z,29.40
2022-08-29T13:53:09.762Z,29.40
2022-08-29T13:55:38.014Z,29.40
2022-08-29T13:58:07.289Z,29.30
2022-08-29T14:00:35.838Z,29.10
2022-08-29T14:03:06.510Z,28.80
2022-08-29T14:05:35.619Z,28.60
2022-08-29T14:08:04.792Z,28.70
2022-08-29T14:10:32.722Z,28.90
2022-08-29T14:13:00.592Z,29.00
2022-08-29T14:15:30.073Z,29.10
2022-08-29T14:17:58.186Z,29.20
2022-08-29T14:20:26.257Z,29.30
2022-08-29T14:22:54.325Z,29.20
2022-08-29T14:25:22.368Z,29.00
2022-08-29T14:27:50.934Z,28.80
2022-08-29T14:30:21.895Z,28.60
2022-08-29T14:32:51.108Z,28.50
2022-08-29T14:35:25.888Z,28.60
2022-08-29T14:37:55.118Z,28.60
2022-08-29T14:40:23.730Z,28.60
2022-08-29T14:42:53.702Z,28.50
2022-08-29T14:45:21.807Z,28.50
2022-08-29T14:47:51.031Z,28.60
2022-08-29T14:50:19.060Z,28.70
2022-08-29T14:52:46.931Z,28.60
2022-08-29T14:55:14.897Z,28.60
2022-08-29T14:57:42.997Z,28.60
2022-08-29T15:00:14.539Z,28.60
2022-08-29T15:02:42.973Z,28.60
2022-08-29T15:05:13.271Z,28.70
2022-08-29T15:07:41.811Z,28.70
2022-08-29T15:10:10.970Z,28.60
2022-08-29T15:12:38.932Z,28.60
2022-08-29T15:15:07.785Z,28.50
2022-08-29T15:17:35.798Z,28.30
2022-08-29T15:22:54.942Z,28.10
2022-08-29T15:25:22.879Z,27.90
2022-08-29T15:27:50.756Z,27.60
2022-08-29T15:30:22.336Z,27.60
2022-08-29T15:32:50.376Z,27.50
2022-08-29T15:35:18.342Z,27.40
2022-08-29T15:37:46.337Z,27.20
2022-08-29T15:40:15.898Z,26.90
2022-08-29T15:42:43.839Z,26.60
2022-08-29T15:45:12.550Z,26.40
2022-08-29T15:47:46.421Z,26.40
2022-08-29T15:50:14.646Z,26.40
2022-08-29T15:52:42.638Z,26.20
2022-08-29T15:55:12.671Z,26.20
2022-08-29T15:57:51.451Z,26.20
2022-08-29T16:00:30.514Z,26.00
2022-08-29T16:03:00.726Z,25.90
2022-08-29T16:05:29.352Z,25.90
2022-08-29T16:07:57.290Z,25.90
2022-08-29T16:10:25.222Z,25.80
2022-08-29T16:12:54.553Z,25.80
2022-08-29T16:15:22.488Z,25.80
2022-08-29T16:17:50.313Z,25.70
2022-08-29T16:20:18.793Z,25.60
2022-08-29T16:22:46.747Z,25.60
2022-08-29T16:25:15.201Z,25.60
2022-08-29T16:27:43.233Z,25.60
2022-08-29T16:30:13.872Z,25.50
2022-08-29T16:32:42.243Z,25.50
2022-08-29T16:35:11.741Z,25.50
2022-08-29T16:37:40.215Z,25.40
2022-08-29T16:40:09.882Z,25.40
2022-08-29T16:42:39.253Z,25.40
2022-08-29T16:45:09.674Z,25.40
2022-08-29T16:47:39.107Z,25.30
2022-08-29T16:50:11.868Z,25.30
2022-08-29T16:52:40.187Z,25.20
2022-08-29T16:55:09.584Z,25.20
2022-08-29T16:57:37.683Z,25.10
2022-08-29T17:00:09.719Z,25.10
2022-08-29T17:02:38.986Z,25.10
2022-08-29T17:05:07.919Z,25.00
2022-08-29T17:07:34.699Z,25.00
2022-08-29T17:10:03.043Z,25.00
2022-08-29T17:12:30.354Z,24.90
2022-08-29T17:14:57.542Z,24.90
2022-08-29T17:17:25.417Z,24.80
2022-08-29T17:19:54.740Z,24.80
2022-08-29T17:22:23.128Z,24.70
2022-08-29T17:24:51.065Z,24.70
2022-08-29T17:27:21.439Z,24.70
2022-08-29T17:29:49.849Z,24.60
2022-08-29T17:32:17.968Z,24.60
2022-08-29T17:34:46.111Z,24.50
2022-08-29T17:37:15.348Z,24.40
2022-08-29T17:39:43.265Z,24.30
2022-08-29T17:42:11.585Z,24.10
2022-08-29T17:44:39.567Z,24.00
2022-08-29T17:47:07.899Z,23.90
2022-08-29T17:49:35.950Z,23.80
2022-08-29T17:52:04.566Z,23.80
2022-08-29T17:54:33.765Z,23.70
2022-08-29T17:57:02.768Z,23.50
2022-08-29T17:59:32.804Z,23.50
2022-08-29T18:02:01.564Z,23.40
2022-08-29T18:04:30.070Z,23.20
2022-08-29T18:06:58.683Z,23.10
2022-08-29T18:09:26.592Z,23.10
2022-08-29T18:11:58.253Z,23.00
2022-08-29T18:14:26.752Z,22.80
2022-08-29T18:16:55.531Z,22.80
2022-08-29T18:19:24.005Z,22.70
2022-08-29T18:21:53.037Z,22.60
2022-08-29T18:24:21.105Z,22.50
2022-08-29T18:26:50.309Z,22.40
2022-08-29T18:29:20.763Z,22.20
2022-08-29T18:31:49.328Z,22.00
2022-08-29T18:34:17.505Z,21.80
2022-08-29T18:36:46.916Z,21.70
2022-08-29T18:39:16.406Z,21.50
2022-08-29T18:41:44.406Z,21.40
2022-08-29T18:44:13.194Z,21.30
2022-08-29T18:46:48.230Z,21.10
2022-08-29T18:49:16.578Z,21.00
2022-08-29T18:51:44.635Z,20.90
2022-08-29T18:54:16.308Z,20.60
2022-08-29T18:56:46.850Z,20.40
2022-08-29T18:59:14.707Z,20.20
2022-08-29T19:01:44.201Z,20.00
2022-08-29T19:04:12.160Z,19.90
2022-08-29T19:06:40.032Z,19.80
2022-08-29T19:09:07.948Z,19.60
2022-08-29T19:11:36.452Z,19.40
2022-08-29T19:14:05.000Z,19.20
2022-08-29T19:16:33.731Z,19.10
2022-08-29T19:19:03.127Z,19.00
2022-08-29T19:21:30.026Z,18.90
2022-08-29T19:23:57.883Z,18.80
2022-08-29T19:26:29.186Z,18.70
2022-08-29T19:28:59.086Z,18.60
2022-08-29T19:31:29.106Z,18.60
2022-08-29T19:33:57.313Z,18.50
2022-08-29T19:36:27.024Z,18.40
2022-08-29T19:38:55.053Z,18.40
2022-08-29T19:41:23.416Z,18.30
2022-08-29T19:43:53.512Z,18.20
2022-08-29T19:46:23.776Z,18.00
2022-08-29T19:48:52.300Z,17.90
2022-08-29T19:51:21.860Z,17.90
2022-08-29T19:53:56.661Z,17.80
2022-08-29T19:56:25.587Z,17.70
2022-08-29T19:58:54.523Z,17.60
2022-08-29T20:01:22.576Z,17.50
2022-08-29T20:03:50.441Z,17.40
2022-08-29T20:06:20.887Z,17.40
2022-08-29T20:08:49.029Z,17.30
2022-08-29T20:11:21.087Z,17.30
2022-08-29T20:13:51.237Z,17.20
2022-08-29T20:16:22.712Z,17.10
2022-08-29T20:18:51.839Z,17.10
2022-08-29T20:21:23.520Z,17.10
2022-08-29T20:23:54.708Z,17.00
2022-08-29T20:26:29.337Z,16.90
2022-08-29T20:28:58.273Z,16.80
2022-08-29T20:31:26.424Z,16.80
2022-08-29T20:33:54.428Z,16.70
2022-08-29T20:36:42.033Z,16.70
2022-08-29T20:39:11.665Z,16.60
2022-08-29T20:41:40.919Z,16.70
2022-08-29T20:44:10.143Z,16.60
2022-08-29T20:46:42.244Z,16.60
2022-08-29T20:49:10.663Z,16.40
2022-08-29T20:51:38.909Z,16.50
2022-08-29T20:54:07.411Z,16.40
2022-08-29T20:56:35.310Z,16.40
2022-08-29T20:59:04.838Z,16.50
2022-08-29T21:01:33.170Z,16.50
2022-08-29T21:04:20.880Z,16.50
2022-08-29T21:06:49.612Z,16.50
2022-08-29T21:09:17.546Z,16.50
2022-08-29T21:11:45.598Z,16.40
2022-08-29T21:14:15.047Z,16.30
2022-08-29T21:16:43.747Z,16.10
2022-08-29T21:19:12.658Z,16.10
2022-08-29T21:21:41.993Z,16.00
2022-08-29T21:24:11.317Z,15.90
2022-08-29T21:26:39.999Z,15.80
2022-08-29T21:29:08.713Z,15.70
2022-08-29T21:31:39.341Z,15.60
2022-08-29T21:34:10.377Z,15.50
2022-08-29T21:36:39.796Z,15.40
2022-08-29T21:39:10.024Z,15.40
2022-08-29T21:41:40.705Z,15.30
2022-08-29T21:44:09.875Z,15.30
2022-08-29T21:46:43.017Z,15.40
2022-08-29T21:49:13.716Z,15.50
2022-08-29T21:51:41.876Z,15.70
2022-08-29T21:54:13.402Z,15.70
2022-08-29T21:56:42.416Z,15.70
2022-08-29T21:59:11.129Z,15.70
2022-08-29T22:01:43.783Z,15.70
2022-08-29T22:04:19.328Z,15.70
2022-08-29T22:06:57.077Z,15.70
2022-08-29T22:09:25.562Z,15.70
2022-08-29T22:11:53.532Z,15.80
2022-08-29T22:14:21.424Z,15.80
2022-08-29T22:16:50.886Z,15.80
2022-08-29T22:19:19.560Z,15.70
2022-08-29T22:21:51.869Z,15.60
2022-08-29T22:24:20.167Z,15.60
2022-08-29T22:26:48.358Z,15.40
2022-08-29T22:29:16.296Z,15.30
2022-08-29T22:31:45.395Z,15.10
2022-08-29T22:34:16.714Z,14.90
2022-08-29T22:36:45.548Z,15.00
2022-08-29T22:39:13.914Z,15.10
2022-08-29T22:41:46.793Z,15.10
2022-08-29T22:47:03.477Z,15.00
2022-08-29T22:49:33.374Z,14.90
2022-08-29T22:52:01.683Z,14.80
2022-08-29T22:54:38.398Z,14.70
2022-08-29T22:57:08.574Z,14.70
2022-08-29T22:59:37.421Z,14.70
2022-08-29T23:02:05.938Z,14.70
2022-08-29T23:04:35.881Z,14.60
2022-08-29T23:07:04.068Z,14.60
2022-08-29T23:09:35.337Z,14.60
2022-08-29T23:12:04.810Z,14.60
2022-08-29T23:14:35.731Z,14.50
2022-08-29T23:17:04.286Z,14.50
2022-08-29T23:19:32.306Z,14.60
2022-08-29T23:22:02.328Z,14.50
2022-08-29T23:24:30.618Z,14.50
2022-08-29T23:26:58.454Z,14.40
2022-08-29T23:29:27.069Z,14.40
2022-08-29T23:31:54.944Z,14.20
2022-08-29T23:34:23.595Z,14.20
2022-08-29T23:36:51.437Z,14.10
2022-08-29T23:39:20.666Z,14.00
2022-08-29T23:41:48.586Z,13.90
2022-08-29T23:44:16.549Z,13.90
2022-08-29T23:46:44.587Z,13.90
2022-08-29T23:49:12.825Z,13.90
2022-08-29T23:51:40.733Z,14.10
2022-08-29T23:54:08.854Z,14.20
2022-08-29T23:56:38.066Z,14.30
2022-08-29T23:59:06.023Z,14.30
